sensor_id;sensor_type;location;lat;lon;timestamp;pressure;altitude;pressure_sealevel;temperature;humidity
56594;BME280;42474;51.660;5.824;2023-02-24T00:03:25;101550.0;;;3.8;89.5
56594;BME280;42474;51.660;5.824;2023-02-24T00:08:25;101550.0;;;3.8;89.0
56594;BME280;42474;51.660;5.824;2023-02-24T00:13:25;101530.0;;;3.7;89.5
56594;BME280;42474;51.660;5.824;2023-02-24T00:18:25;101540.0;;;3.7;89.5
56594;BME280;42474;51.660;5.824;2023-02-24T00:23:25;101530.0;;;3.7;89.5
56594;BME280;42474;51.660;5.824;2023-02-24T00:28:26;101530.0;;;3.7;89.5
56594;BME280;42474;51.660;5.824;2023-02-24T00:33:25;101520.0;;;3.7;89.5
56594;BME280;42474;51.660;5.824;2023-02-24T00:38:25;101520.0;;;3.8;90.0
56594;BME280;42474;51.660;5.824;2023-02-24T00:43:25;101520.0;;;3.9;90.0
56594;BME280;42474;51.660;5.824;2023-02-24T00:48:25;101520.0;;;4.0;90.0
56594;BME280;42474;51.660;5.824;2023-02-24T00:53:25;101510.0;;;4.0;90.0
56594;BME280;42474;51.660;5.824;2023-02-24T00:58:25;101510.0;;;4.1;90.0
56594;BME280;42474;51.660;5.824;2023-02-24T01:03:25;101500.0;;;4.2;90.0
56594;BME280;42474;51.660;5.824;2023-02-24T01:08:25;101500.0;;;4.3;90.0
56594;BME280;42474;51.660;5.824;2023-02-24T01:13:26;101490.0;;;4.3;90.0
56594;BME280;42474;51.660;5.824;2023-02-24T01:18:25;101480.0;;;4.4;90.0
56594;BME280;42474;51.660;5.824;2023-02-24T01:23:25;101460.0;;;4.4;90.0
56594;BME280;42474;51.660;5.824;2023-02-24T01:28:25;101470.0;;;4.5;90.0
56594;BME280;42474;51.660;5.824;2023-02-24T01:33:25;101460.0;;;4.6;90.5
56594;BME280;42474;51.660;5.824;2023-02-24T01:38:25;101450.0;;;4.6;90.5
56594;BME280;42474;51.660;5.824;2023-02-24T01:43:25;101450.0;;;4.6;90.0
56594;BME280;42474;51.660;5.824;2023-02-24T01:48:27;101440.0;;;4.6;90.0
56594;BME280;42474;51.660;5.824;2023-02-24T01:53:25;101420.0;;;4.6;90.0
56594;BME280;42474;51.660;5.824;2023-02-24T01:58:28;101420.0;;;4.7;90.0
56594;BME280;42474;51.660;5.824;2023-02-24T02:08:26;101400.0;;;4.7;90.0
56594;BME280;42474;51.660;5.824;2023-02-24T02:13:27;101390.0;;;4.7;90.0
56594;BME280;42474;51.660;5.824;2023-02-24T02:18:51;101380.0;;;4.7;89.5
56594;BME280;42474;51.660;5.824;2023-02-24T02:25:19;101370.0;;;4.7;90.0
56594;BME280;42474;51.660;5.824;2023-02-24T02:32:48;101360.0;;;4.8;90.0
56594;BME280;42474;51.660;5.824;2023-02-24T02:37:35;101340.0;;;4.8;90.0
56594;BME280;42474;51.660;5.824;2023-02-24T02:42:20;101340.0;;;4.7;90.0
56594;BME280;42474;51.660;5.824;2023-02-24T02:46:53;101340.0;;;4.7;89.5
56594;BME280;42474;51.660;5.824;2023-02-24T02:50:22;101330.0;;;4.6;89.0
56594;BME280;42474;51.660;5.824;2023-02-24T02:54:11;101320.0;;;4.5;89.0
56594;BME280;42474;51.660;5.824;2023-02-24T02:58:41;101320.0;;;4.3;89.5
56594;BME280;42474;51.660;5.824;2023-02-24T03:03:26;101320.0;;;4.2;89.0
56594;BME280;42474;51.660;5.824;2023-02-24T03:08:28;101320.0;;;4.0;89.0
56594;BME280;42474;51.660;5.824;2023-02-24T03:13:28;101300.0;;;3.9;89.0
56594;BME280;42474;51.660;5.824;2023-02-24T03:18:42;101300.0;;;3.8;89.0
56594;BME280;42474;51.660;5.824;2023-02-24T03:23:27;101300.0;;;3.6;89.0
56594;BME280;42474;51.660;5.824;2023-02-24T03:28:29;101300.0;;;3.5;89.0
56594;BME280;42474;51.660;5.824;2023-02-24T03:33:41;101290.0;;;3.5;89.0
56594;BME280;42474;51.660;5.824;2023-02-24T03:38:25;101290.0;;;3.4;89.0
56594;BME280;42474;51.660;5.824;2023-02-24T03:43:32;101280.0;;;3.3;89.0
56594;BME280;42474;51.660;5.824;2023-02-24T03:48:26;101280.0;;;3.2;89.0
56594;BME280;42474;51.660;5.824;2023-02-24T03:53:55;101270.0;;;3.2;89.0
56594;BME280;42474;51.660;5.824;2023-02-24T04:00:09;101270.0;;;3.1;89.0
56594;BME280;42474;51.660;5.824;2023-02-24T04:03:34;101270.0;;;3.0;89.0
56594;BME280;42474;51.660;5.824;2023-02-24T04:08:26;101270.0;;;3.0;89.5
56594;BME280;42474;51.660;5.824;2023-02-24T04:13:50;101260.0;;;2.9;89.5
56594;BME280;42474;51.660;5.824;2023-02-24T04:18:29;101250.0;;;2.9;89.0
56594;BME280;42474;51.660;5.824;2023-02-24T04:23:37;101260.0;;;2.9;89.0
56594;BME280;42474;51.660;5.824;2023-02-24T04:28:27;101260.0;;;2.8;89.0
56594;BME280;42474;51.660;5.824;2023-02-24T04:33:26;101240.0;;;2.8;89.0
56594;BME280;42474;51.660;5.824;2023-02-24T04:38:25;101250.0;;;2.8;89.5
56594;BME280;42474;51.660;5.824;2023-02-24T04:43:25;101240.0;;;2.7;89.5
56594;BME280;42474;51.660;5.824;2023-02-24T04:48:25;101240.0;;;2.7;89.5
56594;BME280;42474;51.660;5.824;2023-02-24T04:53:25;101220.0;;;2.8;89.5
56594;BME280;42474;51.660;5.824;2023-02-24T04:58:25;101220.0;;;2.8;89.5
56594;BME280;42474;51.660;5.824;2023-02-24T05:03:25;101220.0;;;2.8;89.5
56594;BME280;42474;51.660;5.824;2023-02-24T05:08:27;101210.0;;;2.9;89.5
56594;BME280;42474;51.660;5.824;2023-02-24T05:13:29;101200.0;;;3.0;89.5
56594;BME280;42474;51.660;5.824;2023-02-24T05:18:25;101190.0;;;3.0;89.5
56594;BME280;42474;51.660;5.824;2023-02-24T05:23:25;101190.0;;;3.1;89.5
56594;BME280;42474;51.660;5.824;2023-02-24T05:28:25;101180.0;;;3.1;89.5
56594;BME280;42474;51.660;5.824;2023-02-24T05:33:25;101170.0;;;3.2;89.5
56594;BME280;42474;51.660;5.824;2023-02-24T05:38:25;101160.0;;;3.2;89.0
56594;BME280;42474;51.660;5.824;2023-02-24T05:43:25;101150.0;;;3.2;89.0
56594;BME280;42474;51.660;5.824;2023-02-24T05:48:25;101150.0;;;3.2;89.0
56594;BME280;42474;51.660;5.824;2023-02-24T05:53:26;101140.0;;;3.2;89.0
56594;BME280;42474;51.660;5.824;2023-02-24T05:58:26;101130.0;;;3.3;88.5
56594;BME280;42474;51.660;5.824;2023-02-24T06:03:25;101130.0;;;3.3;88.5
56594;BME280;42474;51.660;5.824;2023-02-24T06:08:25;101120.0;;;3.3;88.5
56594;BME280;42474;51.660;5.824;2023-02-24T06:13:25;101110.0;;;3.3;88.5
56594;BME280;42474;51.660;5.824;2023-02-24T06:18:25;101120.0;;;3.4;88.5
56594;BME280;42474;51.660;5.824;2023-02-24T06:23:25;101110.0;;;3.4;88.5
56594;BME280;42474;51.660;5.824;2023-02-24T06:28:25;101100.0;;;3.5;88.5
56594;BME280;42474;51.660;5.824;2023-02-24T06:33:25;101080.0;;;3.5;88.5
56594;BME280;42474;51.660;5.824;2023-02-24T06:38:25;101070.0;;;3.5;88.5
56594;BME280;42474;51.660;5.824;2023-02-24T06:43:25;101070.0;;;3.5;88.5
56594;BME280;42474;51.660;5.824;2023-02-24T06:48:25;101070.0;;;3.5;88.0
56594;BME280;42474;51.660;5.824;2023-02-24T06:53:25;101070.0;;;3.5;88.0
56594;BME280;42474;51.660;5.824;2023-02-24T06:58:25;101060.0;;;3.6;88.0
56594;BME280;42474;51.660;5.824;2023-02-24T07:03:27;101050.0;;;3.6;88.0
56594;BME280;42474;51.660;5.824;2023-02-24T07:08:25;101040.0;;;3.7;88.0
56594;BME280;42474;51.660;5.824;2023-02-24T07:13:26;101050.0;;;3.7;88.0
56594;BME280;42474;51.660;5.824;2023-02-24T07:18:25;101040.0;;;3.8;88.0
56594;BME280;42474;51.660;5.824;2023-02-24T07:23:25;101040.0;;;3.9;88.0
56594;BME280;42474;51.660;5.824;2023-02-24T07:28:25;101030.0;;;3.9;88.0
56594;BME280;42474;51.660;5.824;2023-02-24T07:33:25;101020.0;;;4.0;87.5
56594;BME280;42474;51.660;5.824;2023-02-24T07:38:25;101020.0;;;4.1;87.5
56594;BME280;42474;51.660;5.824;2023-02-24T07:43:25;101010.0;;;4.1;87.5
56594;BME280;42474;51.660;5.824;2023-02-24T07:48:25;101000.0;;;4.3;87.5
56594;BME280;42474;51.660;5.824;2023-02-24T07:53:25;100990.0;;;4.3;87.0
56594;BME280;42474;51.660;5.824;2023-02-24T07:58:25;100990.0;;;4.4;87.0
56594;BME280;42474;51.660;5.824;2023-02-24T08:03:26;100980.0;;;4.5;87.0
56594;BME280;42474;51.660;5.824;2023-02-24T08:08:25;100980.0;;;4.6;86.5
56594;BME280;42474;51.660;5.824;2023-02-24T08:13:25;100960.0;;;4.7;86.5
56594;BME280;42474;51.660;5.824;2023-02-24T08:18:25;100960.0;;;4.8;86.0
56594;BME280;42474;51.660;5.824;2023-02-24T08:23:25;100950.0;;;4.9;85.5
56594;BME280;42474;51.660;5.824;2023-02-24T08:28:25;100940.0;;;5.0;85.5
56594;BME280;42474;51.660;5.824;2023-02-24T08:33:25;100940.0;;;5.1;85.0
56594;BME280;42474;51.660;5.824;2023-02-24T08:38:28;100940.0;;;5.3;84.5
56594;BME280;42474;51.660;5.824;2023-02-24T08:43:31;100930.0;;;5.3;84.0
56594;BME280;42474;51.660;5.824;2023-02-24T08:48:27;100920.0;;;5.4;83.5
56594;BME280;42474;51.660;5.824;2023-02-24T08:53:25;100920.0;;;5.5;84.0
56594;BME280;42474;51.660;5.824;2023-02-24T08:58:25;100910.0;;;5.6;83.0
56594;BME280;42474;51.660;5.824;2023-02-24T09:03:28;100910.0;;;5.6;83.0
56594;BME280;42474;51.660;5.824;2023-02-24T09:08:25;100900.0;;;5.6;83.0
56594;BME280;42474;51.660;5.824;2023-02-24T09:13:25;100890.0;;;5.6;83.0
56594;BME280;42474;51.660;5.824;2023-02-24T09:18:25;100870.0;;;5.7;83.5
56594;BME280;42474;51.660;5.824;2023-02-24T09:23:25;100870.0;;;5.8;83.0
56594;BME280;42474;51.660;5.824;2023-02-24T09:28:26;100870.0;;;5.8;83.0
56594;BME280;42474;51.660;5.824;2023-02-24T09:33:30;100870.0;;;5.9;83.0
56594;BME280;42474;51.660;5.824;2023-02-24T09:38:26;100860.0;;;5.9;83.0
56594;BME280;42474;51.660;5.824;2023-02-24T09:43:28;100840.0;;;5.9;82.5
56594;BME280;42474;51.660;5.824;2023-02-24T09:48:30;100830.0;;;5.9;83.0
56594;BME280;42474;51.660;5.824;2023-02-24T09:53:27;100830.0;;;5.9;83.0
56594;BME280;42474;51.660;5.824;2023-02-24T09:58:43;100820.0;;;6.0;82.5
56594;BME280;42474;51.660;5.824;2023-02-24T10:03:40;100820.0;;;6.0;82.5
56594;BME280;42474;51.660;5.824;2023-02-24T10:08:33;100810.0;;;6.0;82.0
56594;BME280;42474;51.660;5.824;2023-02-24T10:13:30;100810.0;;;6.0;82.0
56594;BME280;42474;51.660;5.824;2023-02-24T10:18:36;100810.0;;;6.0;82.0
56594;BME280;42474;51.660;5.824;2023-02-24T10:23:57;100800.0;;;6.0;82.5
56594;BME280;42474;51.660;5.824;2023-02-24T10:28:49;100790.0;;;6.1;82.5
56594;BME280;42474;51.660;5.824;2023-02-24T10:33:30;100770.0;;;6.1;82.5
56594;BME280;42474;51.660;5.824;2023-02-24T10:38:25;100780.0;;;6.2;83.0
56594;BME280;42474;51.660;5.824;2023-02-24T10:43:26;100770.0;;;6.3;83.0
56594;BME280;42474;51.660;5.824;2023-02-24T10:48:25;100770.0;;;6.4;83.0
56594;BME280;42474;51.660;5.824;2023-02-24T10:53:27;100770.0;;;6.4;82.5
56594;BME280;42474;51.660;5.824;2023-02-24T10:58:32;100760.0;;;6.5;82.5
56594;BME280;42474;51.660;5.824;2023-02-24T11:03:26;100760.0;;;6.5;82.5
56594;BME280;42474;51.660;5.824;2023-02-24T11:08:26;100750.0;;;6.5;82.5
56594;BME280;42474;51.660;5.824;2023-02-24T11:13:25;100740.0;;;6.6;82.5
56594;BME280;42474;51.660;5.824;2023-02-24T11:18:27;100720.0;;;6.6;82.0
56594;BME280;42474;51.660;5.824;2023-02-24T11:23:27;100720.0;;;6.6;82.5
56594;BME280;42474;51.660;5.824;2023-02-24T11:29:30;100710.0;;;6.7;82.0
56594;BME280;42474;51.660;5.824;2023-02-24T11:34:53;100700.0;;;6.7;82.5
56594;BME280;42474;51.660;5.824;2023-02-24T11:40:01;100690.0;;;6.7;83.0
56594;BME280;42474;51.660;5.824;2023-02-24T11:43:27;100690.0;;;6.8;83.0
56594;BME280;42474;51.660;5.824;2023-02-24T11:48:33;100680.0;;;6.8;83.0
56594;BME280;42474;51.660;5.824;2023-02-24T11:53:27;100680.0;;;6.7;83.0
56594;BME280;42474;51.660;5.824;2023-02-24T11:58:36;100670.0;;;6.7;83.5
56594;BME280;42474;51.660;5.824;2023-02-24T12:03:40;100660.0;;;6.7;83.5
56594;BME280;42474;51.660;5.824;2023-02-24T12:08:41;100650.0;;;6.7;84.0
56594;BME280;42474;51.660;5.824;2023-02-24T12:13:49;100640.0;;;6.7;84.0
56594;BME280;42474;51.660;5.824;2023-02-24T12:23:28;100620.0;;;6.7;84.5
56594;BME280;42474;51.660;5.824;2023-02-24T12:29:06;100610.0;;;6.8;85.0
56594;BME280;42474;51.660;5.824;2023-02-24T12:35:14;100600.0;;;6.8;85.0
56594;BME280;42474;51.660;5.824;2023-02-24T12:40:34;100590.0;;;6.7;85.5
56594;BME280;42474;51.660;5.824;2023-02-24T12:46:00;100590.0;;;6.7;85.5
56594;BME280;42474;51.660;5.824;2023-02-24T12:49:10;100590.0;;;6.6;86.0
56594;BME280;42474;51.660;5.824;2023-02-24T12:54:02;100590.0;;;6.6;86.0
56594;BME280;42474;51.660;5.824;2023-02-24T12:58:45;100570.0;;;6.6;86.5
56594;BME280;42474;51.660;5.824;2023-02-24T13:04:32;100570.0;;;6.6;87.0
56594;BME280;42474;51.660;5.824;2023-02-24T13:09:55;100560.0;;;6.7;87.5
56594;BME280;42474;51.660;5.824;2023-02-24T13:14:40;100560.0;;;6.7;87.5
56594;BME280;42474;51.660;5.824;2023-02-24T13:23:25;100560.0;;;6.8;88.0
56594;BME280;42474;51.660;5.824;2023-02-24T13:28:32;100540.0;;;6.8;88.0
56594;BME280;42474;51.660;5.824;2023-02-24T13:33:30;100520.0;;;6.9;88.0
56594;BME280;42474;51.660;5.824;2023-02-24T13:38:38;100510.0;;;7.0;88.5
56594;BME280;42474;51.660;5.824;2023-02-24T13:43:28;100500.0;;;7.1;88.5
56594;BME280;42474;51.660;5.824;2023-02-24T13:49:29;100510.0;;;7.2;88.5
56594;BME280;42474;51.660;5.824;2023-02-24T13:55:53;100490.0;;;7.4;89.0
56594;BME280;42474;51.660;5.824;2023-02-24T14:01:09;100500.0;;;7.5;89.0
56594;BME280;42474;51.660;5.824;2023-02-24T14:03:27;100480.0;;;7.8;89.0
56594;BME280;42474;51.660;5.824;2023-02-24T14:08:46;100480.0;;;7.9;88.5
56594;BME280;42474;51.660;5.824;2023-02-24T14:13:28;100460.0;;;8.0;88.5
56594;BME280;42474;51.660;5.824;2023-02-24T14:18:28;100450.0;;;8.2;89.0
56594;BME280;42474;51.660;5.824;2023-02-24T14:23:27;100440.0;;;8.3;89.0
56594;BME280;42474;51.660;5.824;2023-02-24T14:28:35;100440.0;;;8.4;88.5
56594;BME280;42474;51.660;5.824;2023-02-24T14:33:35;100440.0;;;8.5;89.0
56594;BME280;42474;51.660;5.824;2023-02-24T14:38:30;100450.0;;;8.7;89.0
56594;BME280;42474;51.660;5.824;2023-02-24T14:43:26;100450.0;;;8.8;88.5
56594;BME280;42474;51.660;5.824;2023-02-24T14:48:27;100430.0;;;8.8;88.0
56594;BME280;42474;51.660;5.824;2023-02-24T14:53:27;100430.0;;;8.8;87.5
56594;BME280;42474;51.660;5.824;2023-02-24T14:58:42;100420.0;;;8.8;87.5
56594;BME280;42474;51.660;5.824;2023-02-24T15:03:45;100410.0;;;8.7;88.0
56594;BME280;42474;51.660;5.824;2023-02-24T15:08:43;100410.0;;;9.1;89.0
56594;BME280;42474;51.660;5.824;2023-02-24T15:13:40;100420.0;;;9.4;88.0
56594;BME280;42474;51.660;5.824;2023-02-24T15:18:28;100440.0;;;9.3;85.5
56594;BME280;42474;51.660;5.824;2023-02-24T15:23:37;100430.0;;;8.7;83.5
56594;BME280;42474;51.660;5.824;2023-02-24T15:28:27;100440.0;;;8.3;84.5
56594;BME280;42474;51.660;5.824;2023-02-24T15:33:32;100420.0;;;8.1;85.0
56594;BME280;42474;51.660;5.824;2023-02-24T15:38:29;100430.0;;;8.0;86.0
56594;BME280;42474;51.660;5.824;2023-02-24T15:43:36;100420.0;;;8.0;86.5
56594;BME280;42474;51.660;5.824;2023-02-24T15:48:25;100410.0;;;8.0;86.5
56594;BME280;42474;51.660;5.824;2023-02-24T15:53:25;100420.0;;;8.0;86.5
56594;BME280;42474;51.660;5.824;2023-02-24T15:58:25;100420.0;;;8.0;87.0
56594;BME280;42474;51.660;5.824;2023-02-24T16:03:25;100420.0;;;8.2;87.0
56594;BME280;42474;51.660;5.824;2023-02-24T16:08:25;100420.0;;;8.3;87.0
56594;BME280;42474;51.660;5.824;2023-02-24T16:13:26;100400.0;;;8.3;86.5
56594;BME280;42474;51.660;5.824;2023-02-24T16:18:25;100420.0;;;8.3;86.5
56594;BME280;42474;51.660;5.824;2023-02-24T16:23:26;100420.0;;;8.2;86.5
56594;BME280;42474;51.660;5.824;2023-02-24T16:28:26;100420.0;;;8.1;86.0
56594;BME280;42474;51.660;5.824;2023-02-24T16:33:25;100430.0;;;8.1;86.0
56594;BME280;42474;51.660;5.824;2023-02-24T16:38:25;100430.0;;;8.1;85.5
56594;BME280;42474;51.660;5.824;2023-02-24T16:43:25;100440.0;;;8.0;84.5
56594;BME280;42474;51.660;5.824;2023-02-24T16:48:26;100430.0;;;7.9;84.0
56594;BME280;42474;51.660;5.824;2023-02-24T16:58:25;100440.0;;;7.7;84.0
56594;BME280;42474;51.660;5.824;2023-02-24T17:08:25;100430.0;;;7.6;84.5
56594;BME280;42474;51.660;5.824;2023-02-24T17:13:25;100450.0;;;7.6;84.5
56594;BME280;42474;51.660;5.824;2023-02-24T17:18:25;100460.0;;;7.6;84.5
56594;BME280;42474;51.660;5.824;2023-02-24T17:23:26;100450.0;;;7.5;84.5
56594;BME280;42474;51.660;5.824;2023-02-24T17:28:26;100450.0;;;7.5;84.5
56594;BME280;42474;51.660;5.824;2023-02-24T17:33:25;100460.0;;;7.4;84.5
56594;BME280;42474;51.660;5.824;2023-02-24T17:38:25;100460.0;;;7.3;84.5
56594;BME280;42474;51.660;5.824;2023-02-24T17:43:26;100480.0;;;7.3;84.5
56594;BME280;42474;51.660;5.824;2023-02-24T17:48:25;100490.0;;;7.2;84.5
56594;BME280;42474;51.660;5.824;2023-02-24T17:53:25;100500.0;;;7.1;84.5
56594;BME280;42474;51.660;5.824;2023-02-24T17:58:25;100500.0;;;7.0;84.5
56594;BME280;42474;51.660;5.824;2023-02-24T18:03:25;100510.0;;;6.9;84.5
56594;BME280;42474;51.660;5.824;2023-02-24T18:08:25;100520.0;;;6.8;85.0
56594;BME280;42474;51.660;5.824;2023-02-24T18:13:26;100530.0;;;6.7;85.0
56594;BME280;42474;51.660;5.824;2023-02-24T18:18:27;100530.0;;;6.7;85.0
56594;BME280;42474;51.660;5.824;2023-02-24T18:23:25;100520.0;;;6.7;85.0
56594;BME280;42474;51.660;5.824;2023-02-24T18:28:25;100540.0;;;6.7;85.0
56594;BME280;42474;51.660;5.824;2023-02-24T18:33:26;100550.0;;;6.7;85.5
56594;BME280;42474;51.660;5.824;2023-02-24T18:38:26;100540.0;;;6.7;85.5
56594;BME280;42474;51.660;5.824;2023-02-24T18:43:25;100550.0;;;6.7;85.5
56594;BME280;42474;51.660;5.824;2023-02-24T18:48:26;100540.0;;;6.6;85.0
56594;BME280;42474;51.660;5.824;2023-02-24T18:53:28;100540.0;;;6.6;85.0
56594;BME280;42474;51.660;5.824;2023-02-24T18:58:25;100550.0;;;6.5;85.0
56594;BME280;42474;51.660;5.824;2023-02-24T19:03:25;100550.0;;;6.5;85.0
56594;BME280;42474;51.660;5.824;2023-02-24T19:08:25;100570.0;;;6.4;85.5
56594;BME280;42474;51.660;5.824;2023-02-24T19:13:25;100560.0;;;6.4;85.5
56594;BME280;42474;51.660;5.824;2023-02-24T19:18:25;100560.0;;;6.4;85.5
56594;BME280;42474;51.660;5.824;2023-02-24T19:23:26;100550.0;;;6.3;85.5
56594;BME280;42474;51.660;5.824;2023-02-24T19:28:26;100560.0;;;6.2;85.0
56594;BME280;42474;51.660;5.824;2023-02-24T19:33:25;100570.0;;;6.0;85.0
56594;BME280;42474;51.660;5.824;2023-02-24T19:38:25;100570.0;;;5.9;85.0
56594;BME280;42474;51.660;5.824;2023-02-24T19:43:25;100580.0;;;5.8;85.0
56594;BME280;42474;51.660;5.824;2023-02-24T19:48:25;100580.0;;;5.7;85.0
56594;BME280;42474;51.660;5.824;2023-02-24T19:53:26;100580.0;;;5.6;85.0
56594;BME280;42474;51.660;5.824;2023-02-24T19:58:25;100570.0;;;5.5;85.0
56594;BME280;42474;51.660;5.824;2023-02-24T20:03:25;100580.0;;;5.4;85.0
56594;BME280;42474;51.660;5.824;2023-02-24T20:08:25;100580.0;;;5.3;85.0
56594;BME280;42474;51.660;5.824;2023-02-24T20:13:26;100580.0;;;5.3;85.5
56594;BME280;42474;51.660;5.824;2023-02-24T20:18:26;100600.0;;;5.2;85.5
56594;BME280;42474;51.660;5.824;2023-02-24T20:23:26;100600.0;;;5.1;85.0
56594;BME280;42474;51.660;5.824;2023-02-24T20:28:26;100600.0;;;5.1;86.0
56594;BME280;42474;51.660;5.824;2023-02-24T20:33:25;100610.0;;;5.1;86.0
56594;BME280;42474;51.660;5.824;2023-02-24T20:38:25;100620.0;;;5.1;85.5
56594;BME280;42474;51.660;5.824;2023-02-24T20:43:26;100610.0;;;5.0;85.5
56594;BME280;42474;51.660;5.824;2023-02-24T20:48:25;100620.0;;;5.0;85.5
56594;BME280;42474;51.660;5.824;2023-02-24T20:53:25;100620.0;;;5.0;85.5
56594;BME280;42474;51.660;5.824;2023-02-24T20:58:25;100630.0;;;5.0;85.5
56594;BME280;42474;51.660;5.824;2023-02-24T21:03:25;100640.0;;;5.0;85.5
56594;BME280;42474;51.660;5.824;2023-02-24T21:08:25;100630.0;;;5.0;85.5
56594;BME280;42474;51.660;5.824;2023-02-24T21:13:25;100630.0;;;5.0;85.5
56594;BME280;42474;51.660;5.824;2023-02-24T21:18:25;100620.0;;;5.0;85.0
56594;BME280;42474;51.660;5.824;2023-02-24T21:23:25;100620.0;;;5.1;85.0
56594;BME280;42474;51.660;5.824;2023-02-24T21:28:26;100630.0;;;5.1;85.0
56594;BME280;42474;51.660;5.824;2023-02-24T21:33:26;100620.0;;;5.0;85.0
56594;BME280;42474;51.660;5.824;2023-02-24T21:38:25;100630.0;;;5.0;85.0
56594;BME280;42474;51.660;5.824;2023-02-24T21:43:26;100640.0;;;5.0;85.0
56594;BME280;42474;51.660;5.824;2023-02-24T21:48:25;100630.0;;;5.0;85.0
56594;BME280;42474;51.660;5.824;2023-02-24T21:53:25;100640.0;;;5.0;85.0
56594;BME280;42474;51.660;5.824;2023-02-24T21:58:25;100650.0;;;4.9;85.0
56594;BME280;42474;51.660;5.824;2023-02-24T22:03:25;100630.0;;;4.9;85.0
56594;BME280;42474;51.660;5.824;2023-02-24T22:08:25;100640.0;;;4.8;85.0
56594;BME280;42474;51.660;5.824;2023-02-24T22:13:26;100650.0;;;4.8;85.0
56594;BME280;42474;51.660;5.824;2023-02-24T22:18:26;100650.0;;;4.8;85.5
56594;BME280;42474;51.660;5.824;2023-02-24T22:23:26;100640.0;;;4.8;85.5
56594;BME280;42474;51.660;5.824;2023-02-24T22:28:25;100640.0;;;4.9;85.5
56594;BME280;42474;51.660;5.824;2023-02-24T22:33:26;100650.0;;;4.9;85.5
56594;BME280;42474;51.660;5.824;2023-02-24T22:38:25;100640.0;;;4.9;85.0
56594;BME280;42474;51.660;5.824;2023-02-24T22:43:26;100640.0;;;4.8;85.0
56594;BME280;42474;51.660;5.824;2023-02-24T22:48:26;100640.0;;;4.8;85.0
56594;BME280;42474;51.660;5.824;2023-02-24T22:53:27;100660.0;;;4.7;85.0
56594;BME280;42474;51.660;5.824;2023-02-24T22:58:26;100660.0;;;4.6;84.5
56594;BME280;42474;51.660;5.824;2023-02-24T23:03:27;100670.0;;;4.5;85.0
56594;BME280;42474;51.660;5.824;2023-02-24T23:08:27;100690.0;;;4.5;85.0
56594;BME280;42474;51.660;5.824;2023-02-24T23:13:26;100700.0;;;4.5;85.0
56594;BME280;42474;51.660;5.824;2023-02-24T23:18:25;100680.0;;;4.4;85.0
56594;BME280;42474;51.660;5.824;2023-02-24T23:23:26;100670.0;;;4.4;85.0
56594;BME280;42474;51.660;5.824;2023-02-24T23:28:26;100680.0;;;4.3;85.5
56594;BME280;42474;51.660;5.824;2023-02-24T23:33:25;100700.0;;;4.3;85.5
56594;BME280;42474;51.660;5.824;2023-02-24T23:38:25;100700.0;;;4.2;85.0
56594;BME280;42474;51.660;5.824;2023-02-24T23:43:26;100700.0;;;4.1;85.0
56594;BME280;42474;51.660;5.824;2023-02-24T23:48:25;100710.0;;;4.1;85.0
56594;BME280;42474;51.660;5.824;2023-02-24T23:53:25;100710.0;;;4.0;85.0
56594;BME280;42474;51.660;5.824;2023-02-24T23:58:26;100720.0;;;4.0;85.5
